sensor_id;sensor_type;location;lat;lon;timestamp;temperature;humidity
55173;DHT22;41061;52.822;6.860;2023-04-25T00:01:24;7.00;99.90
55173;DHT22;41061;52.822;6.860;2023-04-25T00:03:49;7.00;99.90
55173;DHT22;41061;52.822;6.860;2023-04-25T00:06:16;7.00;99.90
55173;DHT22;41061;52.822;6.860;2023-04-25T00:08:43;7.00;99.90
55173;DHT22;41061;52.822;6.860;2023-04-25T00:11:09;7.00;99.90
55173;DHT22;41061;52.822;6.860;2023-04-25T00:13:35;7.00;99.90
55173;DHT22;41061;52.822;6.860;2023-04-25T00:16:01;7.00;99.90
55173;DHT22;41061;52.822;6.860;2023-04-25T00:18:28;7.00;99.90
55173;DHT22;41061;52.822;6.860;2023-04-25T00:20:54;7.00;99.90
55173;DHT22;41061;52.822;6.860;2023-04-25T00:23:21;7.00;99.90
55173;DHT22;41061;52.822;6.860;2023-04-25T00:25:49;7.00;99.90
55173;DHT22;41061;52.822;6.860;2023-04-25T00:28:15;7.00;99.90
55173;DHT22;41061;52.822;6.860;2023-04-25T00:30:41;7.00;99.90
55173;DHT22;41061;52.822;6.860;2023-04-25T00:33:08;6.90;99.90
55173;DHT22;41061;52.822;6.860;2023-04-25T00:35:34;6.90;99.90
55173;DHT22;41061;52.822;6.860;2023-04-25T00:38:00;6.90;99.90
55173;DHT22;41061;52.822;6.860;2023-04-25T00:40:27;6.90;99.90
55173;DHT22;41061;52.822;6.860;2023-04-25T00:42:53;6.90;99.90
55173;DHT22;41061;52.822;6.860;2023-04-25T00:45:19;6.80;99.90
55173;DHT22;41061;52.822;6.860;2023-04-25T00:47:46;6.80;99.90
55173;DHT22;41061;52.822;6.860;2023-04-25T00:50:13;6.70;99.90
55173;DHT22;41061;52.822;6.860;2023-04-25T00:52:40;6.70;99.90
55173;DHT22;41061;52.822;6.860;2023-04-25T00:55:07;6.70;99.90
55173;DHT22;41061;52.822;6.860;2023-04-25T00:57:34;6.60;99.90
55173;DHT22;41061;52.822;6.860;2023-04-25T01:00:00;6.60;99.90
55173;DHT22;41061;52.822;6.860;2023-04-25T01:02:26;6.60;99.90
55173;DHT22;41061;52.822;6.860;2023-04-25T01:04:53;6.60;99.90
55173;DHT22;41061;52.822;6.860;2023-04-25T01:07:18;6.60;99.90
55173;DHT22;41061;52.822;6.860;2023-04-25T01:09:46;6.60;99.90
55173;DHT22;41061;52.822;6.860;2023-04-25T01:12:12;6.70;99.90
55173;DHT22;41061;52.822;6.860;2023-04-25T01:14:37;6.70;99.90
55173;DHT22;41061;52.822;6.860;2023-04-25T01:17:03;6.70;99.90
55173;DHT22;41061;52.822;6.860;2023-04-25T01:19:29;6.70;99.90
55173;DHT22;41061;52.822;6.860;2023-04-25T01:21:56;6.60;99.90
55173;DHT22;41061;52.822;6.860;2023-04-25T01:24:22;6.60;99.90
55173;DHT22;41061;52.822;6.860;2023-04-25T01:26:48;6.50;99.90
55173;DHT22;41061;52.822;6.860;2023-04-25T01:29:21;6.50;99.90
55173;DHT22;41061;52.822;6.860;2023-04-25T01:31:46;6.50;99.90
55173;DHT22;41061;52.822;6.860;2023-04-25T01:34:12;6.40;99.90
55173;DHT22;41061;52.822;6.860;2023-04-25T01:36:38;6.40;99.90
55173;DHT22;41061;52.822;6.860;2023-04-25T01:39:05;6.30;99.90
55173;DHT22;41061;52.822;6.860;2023-04-25T01:41:31;6.30;99.90
55173;DHT22;41061;52.822;6.860;2023-04-25T01:43:57;6.30;99.90
55173;DHT22;41061;52.822;6.860;2023-04-25T01:46:22;6.30;99.90
55173;DHT22;41061;52.822;6.860;2023-04-25T01:48:48;6.20;99.90
55173;DHT22;41061;52.822;6.860;2023-04-25T01:51:14;6.20;99.90
55173;DHT22;41061;52.822;6.860;2023-04-25T01:53:40;6.20;99.90
55173;DHT22;41061;52.822;6.860;2023-04-25T01:56:06;6.10;99.90
55173;DHT22;41061;52.822;6.860;2023-04-25T01:58:32;6.10;99.90
55173;DHT22;41061;52.822;6.860;2023-04-25T02:00:58;6.10;99.90
55173;DHT22;41061;52.822;6.860;2023-04-25T02:03:24;6.10;99.90
55173;DHT22;41061;52.822;6.860;2023-04-25T02:05:49;6.00;99.90
55173;DHT22;41061;52.822;6.860;2023-04-25T02:08:16;6.00;99.90
55173;DHT22;41061;52.822;6.860;2023-04-25T02:10:42;6.00;99.90
55173;DHT22;41061;52.822;6.860;2023-04-25T02:13:08;6.00;99.90
55173;DHT22;41061;52.822;6.860;2023-04-25T02:15:34;6.10;99.90
55173;DHT22;41061;52.822;6.860;2023-04-25T02:17:59;6.10;99.90
55173;DHT22;41061;52.822;6.860;2023-04-25T02:20:26;6.10;99.90
55173;DHT22;41061;52.822;6.860;2023-04-25T02:22:52;6.10;99.90
55173;DHT22;41061;52.822;6.860;2023-04-25T02:25:19;6.10;99.90
55173;DHT22;41061;52.822;6.860;2023-04-25T02:27:46;6.10;99.90
55173;DHT22;41061;52.822;6.860;2023-04-25T02:30:12;6.10;99.90
55173;DHT22;41061;52.822;6.860;2023-04-25T02:32:39;6.10;99.90
55173;DHT22;41061;52.822;6.860;2023-04-25T02:35:05;6.10;99.90
55173;DHT22;41061;52.822;6.860;2023-04-25T02:37:32;6.10;99.90
55173;DHT22;41061;52.822;6.860;2023-04-25T02:39:58;6.10;99.90
55173;DHT22;41061;52.822;6.860;2023-04-25T02:42:24;6.10;99.90
55173;DHT22;41061;52.822;6.860;2023-04-25T02:44:50;6.20;99.90
55173;DHT22;41061;52.822;6.860;2023-04-25T02:47:15;6.10;99.90
55173;DHT22;41061;52.822;6.860;2023-04-25T02:49:41;6.10;99.90
55173;DHT22;41061;52.822;6.860;2023-04-25T02:52:07;6.20;99.90
55173;DHT22;41061;52.822;6.860;2023-04-25T02:54:32;6.20;99.90
55173;DHT22;41061;52.822;6.860;2023-04-25T02:56:58;6.10;99.90
55173;DHT22;41061;52.822;6.860;2023-04-25T02:59:24;6.20;99.90
55173;DHT22;41061;52.822;6.860;2023-04-25T03:01:49;6.20;99.90
55173;DHT22;41061;52.822;6.860;2023-04-25T03:04:15;6.10;99.90
55173;DHT22;41061;52.822;6.860;2023-04-25T03:06:41;6.20;99.90
55173;DHT22;41061;52.822;6.860;2023-04-25T03:09:06;6.20;99.90
55173;DHT22;41061;52.822;6.860;2023-04-25T03:11:32;6.20;99.90
55173;DHT22;41061;52.822;6.860;2023-04-25T03:13:58;6.10;99.90
55173;DHT22;41061;52.822;6.860;2023-04-25T03:16:24;6.20;99.90
55173;DHT22;41061;52.822;6.860;2023-04-25T03:18:49;6.10;99.90
55173;DHT22;41061;52.822;6.860;2023-04-25T03:21:16;6.20;99.90
55173;DHT22;41061;52.822;6.860;2023-04-25T03:23:42;6.10;99.90
55173;DHT22;41061;52.822;6.860;2023-04-25T03:26:08;6.10;99.90
55173;DHT22;41061;52.822;6.860;2023-04-25T03:28:33;6.10;99.90
55173;DHT22;41061;52.822;6.860;2023-04-25T03:30:59;6.20;99.90
55173;DHT22;41061;52.822;6.860;2023-04-25T03:33:25;6.10;99.90
55173;DHT22;41061;52.822;6.860;2023-04-25T03:35:51;6.10;99.90
55173;DHT22;41061;52.822;6.860;2023-04-25T03:38:17;6.10;99.90
55173;DHT22;41061;52.822;6.860;2023-04-25T03:40:43;6.20;99.90
55173;DHT22;41061;52.822;6.860;2023-04-25T03:43:08;6.10;99.90
55173;DHT22;41061;52.822;6.860;2023-04-25T03:45:34;6.10;99.90
55173;DHT22;41061;52.822;6.860;2023-04-25T03:48:00;6.10;99.90
55173;DHT22;41061;52.822;6.860;2023-04-25T03:50:26;6.10;99.90
55173;DHT22;41061;52.822;6.860;2023-04-25T03:52:51;6.10;99.90
55173;DHT22;41061;52.822;6.860;2023-04-25T03:55:17;6.10;99.90
55173;DHT22;41061;52.822;6.860;2023-04-25T03:57:43;6.10;99.90
55173;DHT22;41061;52.822;6.860;2023-04-25T04:00:09;6.10;99.90
55173;DHT22;41061;52.822;6.860;2023-04-25T04:02:35;6.10;99.90
55173;DHT22;41061;52.822;6.860;2023-04-25T04:05:03;6.10;99.90
55173;DHT22;41061;52.822;6.860;2023-04-25T04:07:29;6.10;99.90
55173;DHT22;41061;52.822;6.860;2023-04-25T04:09:55;6.10;99.90
55173;DHT22;41061;52.822;6.860;2023-04-25T04:12:20;6.00;99.90
55173;DHT22;41061;52.822;6.860;2023-04-25T04:14:46;6.10;99.90
55173;DHT22;41061;52.822;6.860;2023-04-25T04:17:12;6.10;99.90
55173;DHT22;41061;52.822;6.860;2023-04-25T04:19:37;6.00;99.90
55173;DHT22;41061;52.822;6.860;2023-04-25T04:22:03;6.00;99.90
55173;DHT22;41061;52.822;6.860;2023-04-25T04:24:29;6.00;99.90
55173;DHT22;41061;52.822;6.860;2023-04-25T04:26:54;5.90;99.90
55173;DHT22;41061;52.822;6.860;2023-04-25T04:29:22;5.90;99.90
55173;DHT22;41061;52.822;6.860;2023-04-25T04:31:51;5.90;99.90
55173;DHT22;41061;52.822;6.860;2023-04-25T04:34:18;5.90;99.90
55173;DHT22;41061;52.822;6.860;2023-04-25T04:36:44;5.90;99.90
55173;DHT22;41061;52.822;6.860;2023-04-25T04:39:13;5.90;99.90
55173;DHT22;41061;52.822;6.860;2023-04-25T04:41:40;5.90;99.90
55173;DHT22;41061;52.822;6.860;2023-04-25T04:44:06;5.80;99.90
55173;DHT22;41061;52.822;6.860;2023-04-25T04:46:35;5.80;99.90
55173;DHT22;41061;52.822;6.860;2023-04-25T04:49:09;5.80;99.90
55173;DHT22;41061;52.822;6.860;2023-04-25T04:51:35;5.80;99.90
55173;DHT22;41061;52.822;6.860;2023-04-25T04:54:02;5.80;99.90
55173;DHT22;41061;52.822;6.860;2023-04-25T04:56:29;5.90;99.90
55173;DHT22;41061;52.822;6.860;2023-04-25T04:58:57;5.90;99.90
55173;DHT22;41061;52.822;6.860;2023-04-25T05:01:22;5.90;99.90
55173;DHT22;41061;52.822;6.860;2023-04-25T05:03:49;5.90;99.90
55173;DHT22;41061;52.822;6.860;2023-04-25T05:06:16;5.90;99.90
55173;DHT22;41061;52.822;6.860;2023-04-25T05:08:41;6.00;99.90
55173;DHT22;41061;52.822;6.860;2023-04-25T05:11:07;6.00;99.90
55173;DHT22;41061;52.822;6.860;2023-04-25T05:13:33;6.20;99.90
55173;DHT22;41061;52.822;6.860;2023-04-25T05:15:58;6.20;99.90
55173;DHT22;41061;52.822;6.860;2023-04-25T05:18:24;6.30;99.90
55173;DHT22;41061;52.822;6.860;2023-04-25T05:20:50;6.20;99.90
55173;DHT22;41061;52.822;6.860;2023-04-25T05:23:16;6.30;99.90
55173;DHT22;41061;52.822;6.860;2023-04-25T05:25:41;6.30;99.90
55173;DHT22;41061;52.822;6.860;2023-04-25T05:28:07;6.30;99.90
55173;DHT22;41061;52.822;6.860;2023-04-25T05:30:34;6.40;99.90
55173;DHT22;41061;52.822;6.860;2023-04-25T05:33:00;6.40;99.90
55173;DHT22;41061;52.822;6.860;2023-04-25T05:35:26;6.50;99.90
55173;DHT22;41061;52.822;6.860;2023-04-25T05:37:52;6.50;99.90
55173;DHT22;41061;52.822;6.860;2023-04-25T05:40:18;6.50;99.90
55173;DHT22;41061;52.822;6.860;2023-04-25T05:42:44;6.50;99.90
55173;DHT22;41061;52.822;6.860;2023-04-25T05:45:10;6.60;99.90
55173;DHT22;41061;52.822;6.860;2023-04-25T05:47:36;6.60;99.90
55173;DHT22;41061;52.822;6.860;2023-04-25T05:50:01;6.60;99.90
55173;DHT22;41061;52.822;6.860;2023-04-25T05:52:27;6.70;99.90
55173;DHT22;41061;52.822;6.860;2023-04-25T05:54:53;6.70;99.90
55173;DHT22;41061;52.822;6.860;2023-04-25T05:57:26;6.70;99.90
55173;DHT22;41061;52.822;6.860;2023-04-25T05:59:52;6.70;99.90
55173;DHT22;41061;52.822;6.860;2023-04-25T06:02:19;6.80;99.90
55173;DHT22;41061;52.822;6.860;2023-04-25T06:04:46;6.90;99.90
55173;DHT22;41061;52.822;6.860;2023-04-25T06:07:12;6.90;99.90
55173;DHT22;41061;52.822;6.860;2023-04-25T06:09:38;7.10;99.90
55173;DHT22;41061;52.822;6.860;2023-04-25T06:12:05;7.20;99.90
55173;DHT22;41061;52.822;6.860;2023-04-25T06:14:31;7.30;99.90
55173;DHT22;41061;52.822;6.860;2023-04-25T06:16:57;7.30;99.90
55173;DHT22;41061;52.822;6.860;2023-04-25T06:19:23;7.40;99.90
55173;DHT22;41061;52.822;6.860;2023-04-25T06:21:48;7.40;99.90
55173;DHT22;41061;52.822;6.860;2023-04-25T06:24:14;7.30;99.90
55173;DHT22;41061;52.822;6.860;2023-04-25T06:26:40;7.30;99.90
55173;DHT22;41061;52.822;6.860;2023-04-25T06:29:06;7.40;99.90
55173;DHT22;41061;52.822;6.860;2023-04-25T06:31:31;7.50;99.90
55173;DHT22;41061;52.822;6.860;2023-04-25T06:34:00;7.50;99.90
55173;DHT22;41061;52.822;6.860;2023-04-25T06:36:26;7.60;99.90
55173;DHT22;41061;52.822;6.860;2023-04-25T06:38:53;7.70;99.90
55173;DHT22;41061;52.822;6.860;2023-04-25T06:41:20;7.80;99.90
55173;DHT22;41061;52.822;6.860;2023-04-25T06:43:45;7.90;99.90
55173;DHT22;41061;52.822;6.860;2023-04-25T06:46:12;8.10;99.90
55173;DHT22;41061;52.822;6.860;2023-04-25T06:48:37;8.20;99.90
55173;DHT22;41061;52.822;6.860;2023-04-25T06:51:03;8.30;99.90
55173;DHT22;41061;52.822;6.860;2023-04-25T06:53:29;8.40;99.90
55173;DHT22;41061;52.822;6.860;2023-04-25T06:55:55;8.30;99.90
55173;DHT22;41061;52.822;6.860;2023-04-25T06:58:21;8.40;99.90
55173;DHT22;41061;52.822;6.860;2023-04-25T07:00:46;8.40;99.90
55173;DHT22;41061;52.822;6.860;2023-04-25T07:03:12;8.30;99.90
55173;DHT22;41061;52.822;6.860;2023-04-25T07:05:38;8.30;99.90
55173;DHT22;41061;52.822;6.860;2023-04-25T07:08:03;8.40;99.90
55173;DHT22;41061;52.822;6.860;2023-04-25T07:10:29;8.40;99.90
55173;DHT22;41061;52.822;6.860;2023-04-25T07:12:55;8.30;99.90
55173;DHT22;41061;52.822;6.860;2023-04-25T07:15:21;8.30;99.90
55173;DHT22;41061;52.822;6.860;2023-04-25T07:17:46;8.50;99.90
55173;DHT22;41061;52.822;6.860;2023-04-25T07:20:12;8.50;99.90
55173;DHT22;41061;52.822;6.860;2023-04-25T07:22:38;8.70;99.90
55173;DHT22;41061;52.822;6.860;2023-04-25T07:25:04;8.80;99.90
55173;DHT22;41061;52.822;6.860;2023-04-25T07:27:30;8.80;99.90
55173;DHT22;41061;52.822;6.860;2023-04-25T07:29:56;8.70;99.90
55173;DHT22;41061;52.822;6.860;2023-04-25T07:32:22;8.60;99.90
55173;DHT22;41061;52.822;6.860;2023-04-25T07:34:47;8.50;99.90
55173;DHT22;41061;52.822;6.860;2023-04-25T07:37:13;8.20;99.90
55173;DHT22;41061;52.822;6.860;2023-04-25T07:39:39;8.10;99.90
55173;DHT22;41061;52.822;6.860;2023-04-25T07:42:05;8.20;99.90
55173;DHT22;41061;52.822;6.860;2023-04-25T07:44:34;8.40;99.90
55173;DHT22;41061;52.822;6.860;2023-04-25T07:47:07;8.60;99.90
55173;DHT22;41061;52.822;6.860;2023-04-25T07:49:34;8.70;99.90
55173;DHT22;41061;52.822;6.860;2023-04-25T07:52:01;8.80;99.90
55173;DHT22;41061;52.822;6.860;2023-04-25T07:54:26;8.90;99.90
55173;DHT22;41061;52.822;6.860;2023-04-25T07:56:52;8.90;99.90
55173;DHT22;41061;52.822;6.860;2023-04-25T07:59:18;9.00;99.90
55173;DHT22;41061;52.822;6.860;2023-04-25T08:01:44;9.20;99.90
55173;DHT22;41061;52.822;6.860;2023-04-25T08:04:09;9.30;99.90
55173;DHT22;41061;52.822;6.860;2023-04-25T08:06:35;9.40;99.90
55173;DHT22;41061;52.822;6.860;2023-04-25T08:09:01;9.50;99.90
55173;DHT22;41061;52.822;6.860;2023-04-25T08:11:28;9.50;99.90
55173;DHT22;41061;52.822;6.860;2023-04-25T08:13:54;9.40;99.90
55173;DHT22;41061;52.822;6.860;2023-04-25T08:16:20;9.40;99.90
55173;DHT22;41061;52.822;6.860;2023-04-25T08:18:46;9.40;99.90
55173;DHT22;41061;52.822;6.860;2023-04-25T08:21:11;9.40;99.90
55173;DHT22;41061;52.822;6.860;2023-04-25T08:23:38;9.50;99.90
55173;DHT22;41061;52.822;6.860;2023-04-25T08:26:04;9.60;99.90
55173;DHT22;41061;52.822;6.860;2023-04-25T08:28:30;9.70;99.90
55173;DHT22;41061;52.822;6.860;2023-04-25T08:30:56;9.90;99.90
55173;DHT22;41061;52.822;6.860;2023-04-25T08:33:22;10.00;99.90
55173;DHT22;41061;52.822;6.860;2023-04-25T08:35:48;10.00;99.90
55173;DHT22;41061;52.822;6.860;2023-04-25T08:38:13;9.90;99.90
55173;DHT22;41061;52.822;6.860;2023-04-25T08:40:40;9.70;99.90
55173;DHT22;41061;52.822;6.860;2023-04-25T08:43:07;9.40;99.90
55173;DHT22;41061;52.822;6.860;2023-04-25T08:45:40;9.20;99.90
55173;DHT22;41061;52.822;6.860;2023-04-25T08:48:15;8.90;99.90
55173;DHT22;41061;52.822;6.860;2023-04-25T08:50:49;8.60;99.90
55173;DHT22;41061;52.822;6.860;2023-04-25T08:53:16;8.30;99.90
55173;DHT22;41061;52.822;6.860;2023-04-25T08:55:46;8.10;99.90
55173;DHT22;41061;52.822;6.860;2023-04-25T08:58:13;8.00;99.90
55173;DHT22;41061;52.822;6.860;2023-04-25T09:00:39;8.10;99.90
55173;DHT22;41061;52.822;6.860;2023-04-25T09:03:05;8.30;99.90
55173;DHT22;41061;52.822;6.860;2023-04-25T09:05:33;8.60;99.90
55173;DHT22;41061;52.822;6.860;2023-04-25T09:07:58;9.00;99.90
55173;DHT22;41061;52.822;6.860;2023-04-25T09:10:26;9.20;99.90
55173;DHT22;41061;52.822;6.860;2023-04-25T09:13:06;9.30;99.90
55173;DHT22;41061;52.822;6.860;2023-04-25T09:15:53;9.60;99.90
55173;DHT22;41061;52.822;6.860;2023-04-25T09:18:25;9.80;99.90
55173;DHT22;41061;52.822;6.860;2023-04-25T09:20:56;10.10;99.90
55173;DHT22;41061;52.822;6.860;2023-04-25T09:23:23;10.30;99.90
55173;DHT22;41061;52.822;6.860;2023-04-25T09:25:53;10.40;99.90
55173;DHT22;41061;52.822;6.860;2023-04-25T09:28:26;10.30;99.90
55173;DHT22;41061;52.822;6.860;2023-04-25T09:30:57;10.10;99.90
55173;DHT22;41061;52.822;6.860;2023-04-25T09:33:28;9.90;99.90
55173;DHT22;41061;52.822;6.860;2023-04-25T09:36:09;9.70;99.90
55173;DHT22;41061;52.822;6.860;2023-04-25T09:38:45;9.30;99.90
55173;DHT22;41061;52.822;6.860;2023-04-25T09:41:11;8.90;99.90
55173;DHT22;41061;52.822;6.860;2023-04-25T09:43:38;8.80;99.90
55173;DHT22;41061;52.822;6.860;2023-04-25T09:46:09;8.80;99.90
55173;DHT22;41061;52.822;6.860;2023-04-25T09:48:35;8.80;99.90
55173;DHT22;41061;52.822;6.860;2023-04-25T09:51:10;8.70;99.90
55173;DHT22;41061;52.822;6.860;2023-04-25T09:53:38;8.70;99.90
55173;DHT22;41061;52.822;6.860;2023-04-25T09:56:07;8.70;99.90
55173;DHT22;41061;52.822;6.860;2023-04-25T09:58:35;8.50;99.90
55173;DHT22;41061;52.822;6.860;2023-04-25T10:01:03;8.50;99.90
55173;DHT22;41061;52.822;6.860;2023-04-25T10:03:36;8.60;99.90
55173;DHT22;41061;52.822;6.860;2023-04-25T10:06:12;8.80;99.90
55173;DHT22;41061;52.822;6.860;2023-04-25T10:08:40;9.10;99.90
55173;DHT22;41061;52.822;6.860;2023-04-25T10:11:08;9.20;99.90
55173;DHT22;41061;52.822;6.860;2023-04-25T10:13:35;9.20;99.90
55173;DHT22;41061;52.822;6.860;2023-04-25T10:16:04;9.20;99.90
55173;DHT22;41061;52.822;6.860;2023-04-25T10:18:31;9.40;99.90
55173;DHT22;41061;52.822;6.860;2023-04-25T10:21:02;9.60;99.90
55173;DHT22;41061;52.822;6.860;2023-04-25T10:23:30;9.90;99.90
55173;DHT22;41061;52.822;6.860;2023-04-25T10:25:57;10.20;99.90
55173;DHT22;41061;52.822;6.860;2023-04-25T10:28:23;10.40;99.90
55173;DHT22;41061;52.822;6.860;2023-04-25T10:31:09;10.70;99.90
55173;DHT22;41061;52.822;6.860;2023-04-25T10:33:39;11.00;99.90
55173;DHT22;41061;52.822;6.860;2023-04-25T10:36:15;11.10;99.90
55173;DHT22;41061;52.822;6.860;2023-04-25T10:38:45;10.70;99.90
55173;DHT22;41061;52.822;6.860;2023-04-25T10:41:12;9.70;99.90
55173;DHT22;41061;52.822;6.860;2023-04-25T10:43:48;8.90;99.90
55173;DHT22;41061;52.822;6.860;2023-04-25T10:46:17;8.30;99.90
55173;DHT22;41061;52.822;6.860;2023-04-25T10:48:57;7.90;99.90
55173;DHT22;41061;52.822;6.860;2023-04-25T10:51:25;7.80;99.90
55173;DHT22;41061;52.822;6.860;2023-04-25T10:54:12;7.90;99.90
55173;DHT22;41061;52.822;6.860;2023-04-25T10:56:40;8.30;99.90
55173;DHT22;41061;52.822;6.860;2023-04-25T11:01:44;8.80;99.90
55173;DHT22;41061;52.822;6.860;2023-04-25T11:04:30;8.90;99.90
55173;DHT22;41061;52.822;6.860;2023-04-25T11:07:19;9.30;99.90
55173;DHT22;41061;52.822;6.860;2023-04-25T11:09:49;9.70;99.90
55173;DHT22;41061;52.822;6.860;2023-04-25T11:12:15;10.10;99.90
55173;DHT22;41061;52.822;6.860;2023-04-25T11:14:41;10.40;99.90
55173;DHT22;41061;52.822;6.860;2023-04-25T11:17:07;10.60;99.90
55173;DHT22;41061;52.822;6.860;2023-04-25T11:19:33;10.60;99.90
55173;DHT22;41061;52.822;6.860;2023-04-25T11:22:00;10.70;99.90
55173;DHT22;41061;52.822;6.860;2023-04-25T11:24:29;10.60;99.90
55173;DHT22;41061;52.822;6.860;2023-04-25T11:26:56;10.60;99.90
55173;DHT22;41061;52.822;6.860;2023-04-25T11:29:23;10.40;99.90
55173;DHT22;41061;52.822;6.860;2023-04-25T11:31:50;10.30;99.90
55173;DHT22;41061;52.822;6.860;2023-04-25T11:34:19;10.30;99.90
55173;DHT22;41061;52.822;6.860;2023-04-25T11:36:45;10.50;99.90
55173;DHT22;41061;52.822;6.860;2023-04-25T11:39:12;10.50;99.90
55173;DHT22;41061;52.822;6.860;2023-04-25T11:41:41;10.40;99.90
55173;DHT22;41061;52.822;6.860;2023-04-25T11:44:07;10.00;99.90
55173;DHT22;41061;52.822;6.860;2023-04-25T11:46:36;9.50;99.90
55173;DHT22;41061;52.822;6.860;2023-04-25T11:49:02;9.20;99.90
55173;DHT22;41061;52.822;6.860;2023-04-25T11:51:30;9.10;99.90
55173;DHT22;41061;52.822;6.860;2023-04-25T11:53:57;9.20;99.90
55173;DHT22;41061;52.822;6.860;2023-04-25T11:56:23;9.60;99.90
55173;DHT22;41061;52.822;6.860;2023-04-25T11:59:00;10.00;99.90
55173;DHT22;41061;52.822;6.860;2023-04-25T12:01:34;10.40;99.90
55173;DHT22;41061;52.822;6.860;2023-04-25T12:04:14;10.70;99.90
55173;DHT22;41061;52.822;6.860;2023-04-25T12:06:41;10.90;99.90
55173;DHT22;41061;52.822;6.860;2023-04-25T12:09:09;11.00;99.90
55173;DHT22;41061;52.822;6.860;2023-04-25T12:11:42;11.00;99.90
55173;DHT22;41061;52.822;6.860;2023-04-25T12:14:09;10.70;99.90
55173;DHT22;41061;52.822;6.860;2023-04-25T12:16:46;10.50;99.90
55173;DHT22;41061;52.822;6.860;2023-04-25T12:19:19;10.50;99.90
55173;DHT22;41061;52.822;6.860;2023-04-25T12:21:45;10.50;99.90
55173;DHT22;41061;52.822;6.860;2023-04-25T12:24:13;10.50;99.90
55173;DHT22;41061;52.822;6.860;2023-04-25T12:26:53;10.80;99.90
55173;DHT22;41061;52.822;6.860;2023-04-25T12:29:25;11.20;99.90
55173;DHT22;41061;52.822;6.860;2023-04-25T12:31:52;11.50;99.90
55173;DHT22;41061;52.822;6.860;2023-04-25T12:34:22;11.50;99.90
55173;DHT22;41061;52.822;6.860;2023-04-25T12:36:48;11.30;99.90
55173;DHT22;41061;52.822;6.860;2023-04-25T12:39:16;11.10;99.90
55173;DHT22;41061;52.822;6.860;2023-04-25T12:41:42;11.00;99.90
55173;DHT22;41061;52.822;6.860;2023-04-25T12:44:08;11.00;99.90
55173;DHT22;41061;52.822;6.860;2023-04-25T12:46:34;11.00;99.90
55173;DHT22;41061;52.822;6.860;2023-04-25T12:49:00;10.70;99.90
55173;DHT22;41061;52.822;6.860;2023-04-25T12:51:29;10.30;99.90
55173;DHT22;41061;52.822;6.860;2023-04-25T12:53:55;10.10;99.90
55173;DHT22;41061;52.822;6.860;2023-04-25T12:56:20;9.90;99.90
55173;DHT22;41061;52.822;6.860;2023-04-25T12:58:46;9.70;99.90
55173;DHT22;41061;52.822;6.860;2023-04-25T13:01:14;9.60;99.90
55173;DHT22;41061;52.822;6.860;2023-04-25T13:03:40;9.90;99.90
55173;DHT22;41061;52.822;6.860;2023-04-25T13:06:06;10.30;99.90
55173;DHT22;41061;52.822;6.860;2023-04-25T13:08:32;10.50;99.90
55173;DHT22;41061;52.822;6.860;2023-04-25T13:10:58;10.60;99.90
55173;DHT22;41061;52.822;6.860;2023-04-25T13:13:24;10.50;99.90
55173;DHT22;41061;52.822;6.860;2023-04-25T13:15:50;10.30;99.90
55173;DHT22;41061;52.822;6.860;2023-04-25T13:18:15;10.20;99.90
55173;DHT22;41061;52.822;6.860;2023-04-25T13:20:41;10.30;99.90
55173;DHT22;41061;52.822;6.860;2023-04-25T13:23:07;10.40;99.90
55173;DHT22;41061;52.822;6.860;2023-04-25T13:25:32;10.70;99.90
55173;DHT22;41061;52.822;6.860;2023-04-25T13:27:58;10.90;99.90
55173;DHT22;41061;52.822;6.860;2023-04-25T13:30:24;11.20;99.90
55173;DHT22;41061;52.822;6.860;2023-04-25T13:32:49;11.50;99.90
55173;DHT22;41061;52.822;6.860;2023-04-25T13:35:16;11.70;99.90
55173;DHT22;41061;52.822;6.860;2023-04-25T13:37:42;11.90;99.90
55173;DHT22;41061;52.822;6.860;2023-04-25T13:40:10;12.00;99.90
55173;DHT22;41061;52.822;6.860;2023-04-25T13:42:40;12.00;99.90
55173;DHT22;41061;52.822;6.860;2023-04-25T13:45:06;11.90;99.90
55173;DHT22;41061;52.822;6.860;2023-04-25T13:47:33;11.80;99.90
55173;DHT22;41061;52.822;6.860;2023-04-25T13:49:58;11.90;99.90
55173;DHT22;41061;52.822;6.860;2023-04-25T13:52:24;12.10;99.90
55173;DHT22;41061;52.822;6.860;2023-04-25T13:54:51;12.20;99.90
55173;DHT22;41061;52.822;6.860;2023-04-25T13:57:17;12.10;99.90
55173;DHT22;41061;52.822;6.860;2023-04-25T13:59:43;12.10;99.90
55173;DHT22;41061;52.822;6.860;2023-04-25T14:02:09;12.20;99.90
55173;DHT22;41061;52.822;6.860;2023-04-25T14:04:35;12.00;99.90
55173;DHT22;41061;52.822;6.860;2023-04-25T14:07:02;11.70;99.90
55173;DHT22;41061;52.822;6.860;2023-04-25T14:09:27;11.00;99.90
55173;DHT22;41061;52.822;6.860;2023-04-25T14:11:54;10.10;99.90
55173;DHT22;41061;52.822;6.860;2023-04-25T14:14:20;9.60;99.90
55173;DHT22;41061;52.822;6.860;2023-04-25T14:16:47;9.20;99.90
55173;DHT22;41061;52.822;6.860;2023-04-25T14:19:17;8.90;99.90
55173;DHT22;41061;52.822;6.860;2023-04-25T14:21:43;8.70;99.90
55173;DHT22;41061;52.822;6.860;2023-04-25T14:24:10;8.70;99.90
55173;DHT22;41061;52.822;6.860;2023-04-25T14:26:38;8.70;99.90
55173;DHT22;41061;52.822;6.860;2023-04-25T14:29:05;9.20;99.90
55173;DHT22;41061;52.822;6.860;2023-04-25T14:31:31;9.50;99.90
55173;DHT22;41061;52.822;6.860;2023-04-25T14:33:57;9.80;99.90
55173;DHT22;41061;52.822;6.860;2023-04-25T14:36:23;9.90;99.90
55173;DHT22;41061;52.822;6.860;2023-04-25T14:38:48;10.00;99.90
55173;DHT22;41061;52.822;6.860;2023-04-25T14:41:14;9.90;99.90
55173;DHT22;41061;52.822;6.860;2023-04-25T14:43:40;9.90;99.90
55173;DHT22;41061;52.822;6.860;2023-04-25T14:46:07;9.80;99.90
55173;DHT22;41061;52.822;6.860;2023-04-25T14:48:33;9.60;99.90
55173;DHT22;41061;52.822;6.860;2023-04-25T14:51:00;9.30;99.90
55173;DHT22;41061;52.822;6.860;2023-04-25T14:53:26;9.20;99.90
55173;DHT22;41061;52.822;6.860;2023-04-25T14:55:52;9.30;99.90
55173;DHT22;41061;52.822;6.860;2023-04-25T14:58:19;9.40;99.90
55173;DHT22;41061;52.822;6.860;2023-04-25T15:00:46;9.70;99.90
55173;DHT22;41061;52.822;6.860;2023-04-25T15:03:12;9.90;99.90
55173;DHT22;41061;52.822;6.860;2023-04-25T15:05:42;10.10;99.90
55173;DHT22;41061;52.822;6.860;2023-04-25T15:08:08;10.10;99.90
55173;DHT22;41061;52.822;6.860;2023-04-25T15:10:35;10.40;99.90
55173;DHT22;41061;52.822;6.860;2023-04-25T15:13:01;10.70;99.90
55173;DHT22;41061;52.822;6.860;2023-04-25T15:15:28;10.80;99.90
55173;DHT22;41061;52.822;6.860;2023-04-25T15:17:55;10.80;99.90
55173;DHT22;41061;52.822;6.860;2023-04-25T15:20:21;10.80;99.90
55173;DHT22;41061;52.822;6.860;2023-04-25T15:22:47;11.00;99.90
55173;DHT22;41061;52.822;6.860;2023-04-25T15:25:14;11.10;99.90
55173;DHT22;41061;52.822;6.860;2023-04-25T15:27:41;11.10;99.90
55173;DHT22;41061;52.822;6.860;2023-04-25T15:30:10;11.00;99.90
55173;DHT22;41061;52.822;6.860;2023-04-25T15:32:38;10.70;99.90
55173;DHT22;41061;52.822;6.860;2023-04-25T15:35:05;10.40;99.90
55173;DHT22;41061;52.822;6.860;2023-04-25T15:37:35;9.90;99.90
55173;DHT22;41061;52.822;6.860;2023-04-25T15:40:02;9.70;99.90
55173;DHT22;41061;52.822;6.860;2023-04-25T15:42:35;9.70;99.90
55173;DHT22;41061;52.822;6.860;2023-04-25T15:45:02;9.80;99.90